Hon, Libya
Current Conditions -  °F | °C
As of 2:50 AM on Sunday 23 Nov 2014 (Local Time) from HLLM Reporting Station
Clear Clear  
Wind Chill: 61°   Ceiling: Unl
Heat Index: 61°   Visibility: 4mi
Dew Point: 52°   Wind: 2mph
Humidity: 72%   Direction: 230°SW
Pressure: 30.21"   Gusts: NA
Location:  29.13°N, 15.95°E
Report Text: HLLM 222350Z 23002KT 6000 SKC 16/11 Q1023
Loading
Personal Weather Stations






























Interactive Weather Map New forecast layout! Learn more

10-Day Weather Forecast

Advertisements
Track Severe Weather on mobile